createdAt,value
2023-04-15T00:01:19.467Z,3.13
2023-04-15T00:03:54.859Z,2.85
2023-04-15T00:06:25.314Z,2.90
2023-04-15T00:08:56.008Z,3.03
2023-04-15T00:11:26.691Z,2.88
2023-04-15T00:13:56.895Z,2.95
2023-04-15T00:16:27.096Z,3.45
2023-04-15T00:18:59.356Z,3.33
2023-04-15T00:21:29.614Z,3.30
2023-04-15T00:23:59.687Z,3.45
2023-04-15T00:26:29.212Z,3.17
2023-04-15T00:28:58.932Z,3.63
2023-04-15T00:31:29.258Z,3.20
2023-04-15T00:34:01.019Z,3.28
2023-04-15T00:36:32.062Z,3.58
2023-04-15T00:39:03.069Z,3.17
2023-04-15T00:41:34.530Z,3.15
2023-04-15T00:44:04.971Z,3.22
2023-04-15T00:46:37.753Z,2.95
2023-04-15T00:49:10.396Z,3.00
2023-04-15T00:51:39.996Z,3.28
2023-04-15T00:54:10.359Z,3.35
2023-04-15T00:56:41.453Z,2.92
2023-04-15T00:59:12.723Z,3.08
2023-04-15T01:01:43.684Z,3.10
2023-04-15T01:04:15.634Z,3.15
2023-04-15T01:06:45.399Z,2.97
2023-04-15T01:09:15.393Z,3.08
2023-04-15T01:11:46.055Z,2.88
2023-04-15T01:14:17.855Z,3.03
2023-04-15T01:16:49.110Z,2.97
2023-04-15T01:19:22.655Z,3.08
2023-04-15T01:21:52.982Z,3.05
2023-04-15T01:24:23.510Z,3.00
2023-04-15T01:26:55.096Z,3.03
2023-04-15T01:29:25.331Z,3.20
2023-04-15T01:31:57.171Z,3.15
2023-04-15T01:34:27.920Z,2.85
2023-04-15T01:36:58.134Z,2.92
2023-04-15T01:39:27.866Z,3.30
2023-04-15T01:41:59.869Z,2.95
2023-04-15T01:44:30.023Z,3.20
2023-04-15T01:46:59.775Z,3.50
2023-04-15T01:49:29.499Z,2.85
2023-04-15T01:51:59.557Z,3.00
2023-04-15T01:54:29.537Z,2.85
2023-04-15T01:57:02.539Z,2.72
2023-04-15T01:59:33.558Z,2.72
2023-04-15T02:02:03.673Z,2.58
2023-04-15T02:04:34.573Z,2.35
2023-04-15T02:07:04.309Z,2.55
2023-04-15T02:09:34.536Z,2.47
2023-04-15T02:12:06.796Z,2.45
2023-04-15T02:14:36.897Z,2.50
2023-04-15T02:17:08.980Z,2.58
2023-04-15T02:19:39.671Z,2.50
2023-04-15T02:22:09.793Z,2.50
2023-04-15T02:24:39.956Z,2.50
2023-04-15T02:27:12.095Z,2.58
2023-04-15T02:29:41.734Z,2.47
2023-04-15T02:32:12.221Z,2.78
2023-04-15T02:34:43.529Z,2.45
2023-04-15T02:37:15.213Z,2.80
2023-04-15T02:39:45.523Z,2.90
2023-04-15T02:42:17.517Z,2.80
2023-04-15T02:44:47.613Z,2.92
2023-04-15T02:47:17.864Z,2.92
2023-04-15T02:49:48.001Z,2.85
2023-04-15T02:52:17.934Z,2.60
2023-04-15T02:54:47.930Z,2.97
2023-04-15T02:57:20.079Z,3.35
2023-04-15T02:59:50.164Z,2.90
2023-04-15T03:02:20.373Z,2.85
2023-04-15T03:04:50.779Z,2.67
2023-04-15T03:07:22.000Z,2.88
2023-04-15T03:09:52.008Z,2.85
2023-04-15T03:12:24.080Z,2.90
2023-04-15T03:14:53.699Z,2.72
2023-04-15T03:17:23.809Z,2.88
2023-04-15T03:19:53.465Z,2.95
2023-04-15T03:22:23.679Z,2.85
2023-04-15T03:24:53.813Z,3.00
2023-04-15T03:27:25.360Z,2.75
2023-04-15T03:29:55.132Z,2.95
2023-04-15T03:32:25.297Z,3.05
2023-04-15T03:34:55.475Z,3.00
2023-04-15T03:37:25.875Z,2.95
2023-04-15T03:39:56.034Z,3.00
2023-04-15T03:42:27.805Z,2.75
2023-04-15T03:44:58.030Z,2.78
2023-04-15T03:47:28.123Z,2.83
2023-04-15T03:49:58.404Z,2.72
2023-04-15T03:52:28.524Z,2.92
2023-04-15T03:54:58.640Z,2.80
2023-04-15T03:57:30.587Z,2.72
2023-04-15T04:00:00.790Z,3.17
2023-04-15T04:02:31.091Z,2.72
2023-04-15T04:05:01.346Z,2.72
2023-04-15T04:07:31.439Z,2.63
2023-04-15T04:10:01.094Z,2.83
2023-04-15T04:12:33.126Z,2.67
2023-04-15T04:15:03.389Z,2.60
2023-04-15T04:17:33.301Z,2.90
2023-04-15T04:20:03.487Z,2.75
2023-04-15T04:22:33.839Z,2.55
2023-04-15T04:25:03.434Z,2.63
2023-04-15T04:27:35.425Z,2.65
2023-04-15T04:30:05.300Z,2.67
2023-04-15T04:32:35.477Z,2.63
2023-04-15T04:35:05.855Z,2.22
2023-04-15T04:37:35.901Z,2.30
2023-04-15T04:40:06.417Z,2.22
2023-04-15T04:42:39.859Z,2.30
2023-04-15T04:45:11.695Z,2.40
2023-04-15T04:47:41.875Z,2.88
2023-04-15T04:50:12.270Z,2.38
2023-04-15T04:52:42.648Z,2.28
2023-04-15T04:55:12.891Z,2.42
2023-04-15T04:57:44.430Z,2.60
2023-04-15T05:00:15.259Z,2.80
2023-04-15T05:02:45.370Z,2.50
2023-04-15T05:05:15.105Z,2.70
2023-04-15T05:07:44.760Z,2.35
2023-04-15T05:10:15.701Z,2.63
2023-04-15T05:12:47.090Z,2.22
2023-04-15T05:15:17.238Z,2.47
2023-04-15T05:17:47.139Z,2.70
2023-04-15T05:20:17.539Z,2.20
2023-04-15T05:22:47.451Z,2.28
2023-04-15T05:25:17.529Z,2.35
2023-04-15T05:27:49.946Z,2.15
2023-04-15T05:30:20.069Z,2.30
2023-04-15T05:32:49.833Z,2.30
2023-04-15T05:35:19.735Z,2.22
2023-04-15T05:37:49.794Z,2.20
2023-04-15T05:40:20.543Z,2.08
2023-04-15T05:42:52.311Z,2.42
2023-04-15T05:45:22.956Z,2.30
2023-04-15T05:47:54.501Z,2.60
2023-04-15T05:50:24.576Z,2.63
2023-04-15T05:52:54.710Z,2.33
2023-04-15T05:55:24.996Z,2.40
2023-04-15T05:57:56.455Z,2.42
2023-04-15T06:00:26.641Z,2.22
2023-04-15T06:02:56.972Z,2.22
2023-04-15T06:05:27.167Z,2.15
2023-04-15T06:07:57.388Z,2.40
2023-04-15T06:10:27.474Z,2.30
2023-04-15T06:12:59.687Z,2.40
2023-04-15T06:15:29.858Z,2.33
2023-04-15T06:18:00.204Z,2.40
2023-04-15T06:20:29.920Z,2.22
2023-04-15T06:23:00.865Z,2.30
2023-04-15T06:25:30.533Z,2.17
2023-04-15T06:28:02.999Z,2.05
2023-04-15T06:30:33.020Z,2.05
2023-04-15T06:33:03.762Z,2.17
2023-04-15T06:35:33.847Z,2.00
2023-04-15T06:38:04.062Z,1.92
2023-04-15T06:40:34.541Z,2.10
2023-04-15T06:43:06.571Z,1.98
2023-04-15T06:45:36.278Z,2.00
2023-04-15T06:48:06.951Z,1.90
2023-04-15T06:50:37.219Z,1.80
2023-04-15T06:53:08.144Z,1.90
2023-04-15T06:55:38.295Z,2.03
2023-04-15T06:58:10.396Z,1.90
2023-04-15T07:00:40.926Z,1.98
2023-04-15T07:03:13.301Z,1.75
2023-04-15T07:05:43.831Z,1.88
2023-04-15T07:08:13.675Z,1.77
2023-04-15T07:10:43.896Z,2.03
2023-04-15T07:13:15.468Z,1.67
2023-04-15T07:15:46.196Z,1.75
2023-04-15T07:18:16.356Z,1.90
2023-04-15T07:20:46.769Z,1.73
2023-04-15T07:23:16.731Z,1.80
2023-04-15T07:25:47.818Z,2.20
2023-04-15T07:28:19.542Z,2.10
2023-04-15T07:30:49.602Z,2.08
2023-04-15T07:33:19.778Z,2.08
2023-04-15T07:35:50.446Z,2.13
2023-04-15T07:38:20.565Z,2.25
2023-04-15T07:40:50.547Z,1.98
2023-04-15T07:43:22.579Z,2.38
2023-04-15T07:45:52.378Z,2.30
2023-04-15T07:48:22.505Z,2.40
2023-04-15T07:50:51.975Z,2.45
2023-04-15T07:53:22.250Z,2.08
2023-04-15T07:55:52.360Z,2.15
2023-04-15T07:58:24.410Z,2.20
2023-04-15T08:00:55.463Z,2.22
2023-04-15T08:03:25.803Z,2.30
2023-04-15T08:05:56.467Z,2.13
2023-04-15T08:08:26.799Z,1.80
2023-04-15T08:10:56.972Z,2.03
2023-04-15T08:13:29.497Z,2.00
2023-04-15T08:16:20.926Z,2.05
2023-04-15T08:18:52.581Z,2.30
2023-04-15T08:21:23.263Z,2.42
2023-04-15T08:23:55.745Z,2.05
2023-04-15T08:26:25.557Z,2.03
2023-04-15T08:28:57.756Z,2.13
2023-04-15T08:31:32.227Z,2.00
2023-04-15T08:34:02.449Z,1.95
2023-04-15T08:36:32.988Z,2.15
2023-04-15T08:39:05.238Z,2.40
2023-04-15T08:41:43.145Z,2.33
2023-04-15T08:44:16.693Z,2.28
2023-04-15T08:46:46.898Z,2.33
2023-04-15T08:49:18.036Z,1.88
2023-04-15T08:51:48.621Z,2.35
2023-04-15T08:54:18.640Z,2.35
2023-04-15T08:56:49.411Z,2.47
2023-04-15T08:59:21.801Z,2.42
2023-04-15T09:01:53.581Z,2.38
2023-04-15T09:04:24.245Z,2.10
2023-04-15T09:06:54.585Z,2.30
2023-04-15T09:09:24.763Z,1.90
2023-04-15T09:11:54.654Z,1.80
2023-04-15T09:14:26.546Z,1.70
2023-04-15T09:17:00.253Z,1.90
2023-04-15T09:19:30.668Z,1.80
2023-04-15T09:22:02.567Z,1.90
2023-04-15T09:24:43.726Z,1.98
2023-04-15T09:27:13.418Z,1.80
2023-04-15T09:29:46.456Z,1.70
2023-04-15T09:32:19.051Z,1.77
2023-04-15T09:34:49.470Z,1.80
2023-04-15T09:37:32.128Z,1.45
2023-04-15T09:40:02.754Z,1.60
2023-04-15T09:42:33.020Z,1.90
2023-04-15T09:45:14.256Z,2.40
2023-04-15T09:47:44.332Z,1.85
2023-04-15T09:50:15.126Z,2.20
2023-04-15T09:52:46.040Z,2.28
2023-04-15T09:55:17.910Z,2.20
2023-04-15T09:57:49.428Z,2.38
2023-04-15T10:00:22.012Z,2.30
2023-04-15T10:02:52.423Z,2.30
2023-04-15T10:05:23.856Z,2.13
2023-04-15T10:07:54.370Z,2.00
2023-04-15T10:10:24.256Z,2.15
2023-04-15T10:12:56.394Z,2.30
2023-04-15T10:15:29.360Z,1.92
2023-04-15T10:18:02.906Z,2.30
2023-04-15T10:20:32.809Z,2.20
2023-04-15T10:23:04.412Z,2.33
2023-04-15T10:25:36.708Z,2.25
2023-04-15T10:28:08.576Z,2.13
2023-04-15T10:30:40.677Z,2.20
2023-04-15T10:33:13.070Z,2.20
2023-04-15T10:35:47.235Z,2.20
2023-04-15T10:38:38.268Z,2.40
2023-04-15T10:41:21.454Z,2.17
2023-04-15T10:43:54.568Z,2.35
2023-04-15T10:46:40.517Z,2.53
2023-04-15T10:49:12.899Z,2.50
2023-04-15T10:51:45.615Z,2.25
2023-04-15T10:54:19.336Z,2.50
2023-04-15T10:56:54.305Z,2.40
2023-04-15T10:59:24.803Z,2.30
2023-04-15T11:02:00.581Z,2.50
2023-04-15T11:04:57.763Z,2.40
2023-04-15T11:07:50.909Z,2.33
2023-04-15T11:13:54.545Z,2.00
2023-04-15T11:16:24.542Z,2.30
2023-04-15T11:18:58.478Z,1.95
2023-04-15T11:21:29.638Z,2.03
2023-04-15T11:23:59.852Z,2.10
2023-04-15T11:26:30.931Z,1.98
2023-04-15T11:29:02.276Z,2.10
2023-04-15T11:31:32.037Z,1.92
2023-04-15T11:34:03.990Z,2.00
2023-04-15T11:36:34.349Z,2.00
2023-04-15T11:39:05.017Z,1.77
2023-04-15T11:41:34.724Z,1.65
2023-04-15T11:44:18.325Z,1.77
2023-04-15T11:46:48.492Z,1.90
2023-04-15T11:49:30.435Z,1.90
2023-04-15T11:52:01.008Z,1.60
2023-04-15T11:54:31.227Z,1.80
2023-04-15T11:57:02.264Z,1.70
2023-04-15T11:59:46.178Z,1.63
2023-04-15T12:02:16.849Z,1.55
2023-04-15T12:04:47.375Z,1.80
2023-04-15T12:07:17.288Z,1.40
2023-04-15T12:09:57.815Z,1.70
2023-04-15T12:12:31.334Z,1.50
2023-04-15T12:15:03.521Z,1.70
2023-04-15T12:17:51.726Z,1.55
2023-04-15T12:20:28.426Z,1.63
2023-04-15T12:23:09.110Z,1.58
2023-04-15T12:25:39.660Z,1.80
2023-04-15T12:28:14.365Z,2.00
2023-04-15T12:30:54.096Z,2.08
2023-04-15T12:33:24.208Z,1.90
2023-04-15T12:35:54.392Z,2.20
2023-04-15T12:38:24.644Z,2.17
2023-04-15T12:40:54.303Z,1.73
2023-04-15T12:43:23.950Z,1.75
2023-04-15T12:45:56.030Z,2.10
2023-04-15T12:48:26.140Z,2.30
2023-04-15T12:50:56.626Z,1.88
2023-04-15T12:53:26.718Z,1.83
2023-04-15T12:55:56.473Z,1.58
2023-04-15T12:58:26.734Z,2.10
2023-04-15T13:00:58.915Z,1.95
2023-04-15T13:03:29.349Z,1.70
2023-04-15T13:06:00.977Z,1.80
2023-04-15T13:08:31.028Z,1.70
2023-04-15T13:11:00.876Z,1.65
2023-04-15T13:13:32.296Z,1.60
2023-04-15T13:16:04.128Z,1.52
2023-04-15T13:18:35.235Z,1.60
2023-04-15T13:21:05.426Z,1.52
2023-04-15T13:23:36.232Z,1.60
2023-04-15T13:26:05.955Z,1.65
2023-04-15T13:28:36.785Z,1.80
2023-04-15T13:31:09.298Z,1.80
2023-04-15T13:33:39.323Z,1.65
2023-04-15T13:36:09.631Z,1.70
2023-04-15T13:38:39.733Z,1.45
2023-04-15T13:41:09.904Z,1.52
2023-04-15T13:43:40.056Z,1.60
2023-04-15T13:46:11.915Z,1.30
2023-04-15T13:48:42.372Z,1.50
2023-04-15T13:51:11.979Z,1.70
2023-04-15T13:53:42.237Z,1.40
2023-04-15T13:56:12.341Z,1.65
2023-04-15T13:58:44.316Z,1.50
2023-04-15T14:01:15.668Z,1.50
2023-04-15T14:03:46.125Z,1.20
2023-04-15T14:06:16.320Z,1.70
2023-04-15T14:08:46.318Z,1.45
2023-04-15T14:11:16.552Z,1.60
2023-04-15T14:13:46.876Z,1.40
2023-04-15T14:16:19.106Z,1.30
2023-04-15T14:18:49.451Z,1.40
2023-04-15T14:21:19.647Z,1.40
2023-04-15T14:23:49.769Z,1.27
2023-04-15T14:26:20.004Z,1.30
2023-04-15T14:28:50.050Z,1.55
2023-04-15T14:31:22.135Z,1.30
2023-04-15T14:33:52.373Z,1.23
2023-04-15T14:36:22.487Z,1.50
2023-04-15T14:38:52.806Z,1.23
2023-04-15T14:41:23.727Z,1.25
2023-04-15T14:43:54.094Z,1.10
2023-04-15T14:46:26.333Z,1.30
2023-04-15T14:48:56.579Z,1.30
2023-04-15T14:51:27.160Z,1.40
2023-04-15T14:53:57.420Z,1.40
2023-04-15T14:56:27.649Z,1.48
2023-04-15T14:58:58.107Z,1.50
2023-04-15T15:01:30.809Z,1.27
2023-04-15T15:04:00.436Z,1.30
2023-04-15T15:06:30.837Z,1.50
2023-04-15T15:09:02.008Z,1.25
2023-04-15T15:11:32.423Z,1.60
2023-04-15T15:14:02.445Z,1.33
2023-04-15T15:16:34.312Z,1.35
2023-04-15T15:19:04.186Z,1.10
2023-04-15T15:21:34.268Z,1.40
2023-04-15T15:24:04.304Z,1.42
2023-04-15T15:26:34.647Z,1.00
2023-04-15T15:29:04.851Z,1.40
2023-04-15T15:31:37.889Z,1.48
2023-04-15T15:34:07.610Z,1.33
2023-04-15T15:36:37.683Z,1.30
2023-04-15T15:39:08.130Z,1.40
2023-04-15T15:41:38.831Z,1.40
2023-04-15T15:44:09.118Z,1.20
2023-04-15T15:46:41.808Z,1.40
2023-04-15T15:49:12.318Z,1.52
2023-04-15T15:51:42.552Z,1.30
2023-04-15T15:54:12.524Z,1.50
2023-04-15T15:56:42.627Z,1.40
2023-04-15T15:59:12.434Z,1.17
2023-04-15T16:01:45.282Z,1.50
2023-04-15T16:04:15.888Z,1.25
2023-04-15T16:06:47.190Z,1.27
2023-04-15T16:09:17.183Z,1.02
2023-04-15T16:11:47.862Z,1.35
2023-04-15T16:14:18.126Z,1.08
2023-04-15T16:16:49.870Z,1.13
2023-04-15T16:19:20.059Z,1.55
2023-04-15T16:21:50.473Z,1.38
2023-04-15T16:24:20.522Z,1.27
2023-04-15T16:26:50.987Z,1.50
2023-04-15T16:29:20.556Z,1.40
2023-04-15T16:31:52.919Z,1.40
2023-04-15T16:34:23.013Z,1.42
2023-04-15T16:36:53.130Z,1.40
2023-04-15T16:39:25.540Z,1.10
2023-04-15T16:41:56.071Z,1.33
2023-04-15T16:44:26.793Z,1.40
2023-04-15T16:46:58.743Z,1.48
2023-04-15T16:49:28.962Z,1.63
2023-04-15T16:51:59.332Z,1.45
2023-04-15T16:54:30.135Z,1.50
2023-04-15T16:56:59.869Z,1.58
2023-04-15T16:59:30.229Z,1.60
2023-04-15T17:02:02.276Z,1.52
2023-04-15T17:04:32.179Z,1.50
2023-04-15T17:07:02.330Z,1.55
2023-04-15T17:09:31.935Z,1.55
2023-04-15T17:12:02.294Z,1.63
2023-04-15T17:14:32.828Z,1.52
2023-04-15T17:17:04.337Z,1.48
2023-04-15T17:19:34.544Z,1.52
2023-04-15T17:22:04.629Z,1.45
2023-04-15T17:24:35.412Z,1.58
2023-04-15T17:27:05.303Z,1.80
2023-04-15T17:29:35.999Z,1.60
2023-04-15T17:32:10.615Z,1.63
2023-04-15T17:34:49.667Z,1.55
2023-04-15T17:37:20.745Z,1.52
2023-04-15T17:39:50.528Z,1.63
2023-04-15T17:42:21.996Z,1.58
2023-04-15T17:44:52.023Z,1.60
2023-04-15T17:47:24.387Z,1.55
2023-04-15T17:49:54.531Z,1.73
2023-04-15T17:52:24.804Z,1.80
2023-04-15T17:54:54.415Z,1.83
2023-04-15T17:57:25.643Z,1.67
2023-04-15T17:59:55.278Z,1.80
2023-04-15T18:02:27.743Z,1.80
2023-04-15T18:04:58.071Z,1.75
2023-04-15T18:07:27.873Z,1.65
2023-04-15T18:09:58.140Z,1.63
2023-04-15T18:12:27.719Z,1.65
2023-04-15T18:14:57.654Z,1.90
2023-04-15T18:17:30.296Z,1.52
2023-04-15T18:20:00.474Z,1.70
2023-04-15T18:22:30.145Z,1.77
2023-04-15T18:25:04.666Z,1.50
2023-04-15T18:27:35.932Z,1.65
2023-04-15T18:30:06.063Z,1.85
2023-04-15T18:32:37.882Z,1.85
2023-04-15T18:35:10.403Z,1.67
2023-04-15T18:37:40.715Z,1.70
2023-04-15T18:40:12.195Z,1.65
2023-04-15T18:42:41.988Z,1.70
2023-04-15T18:45:12.549Z,1.67
2023-04-15T18:47:44.704Z,1.80
2023-04-15T18:50:14.365Z,1.80
2023-04-15T18:52:44.566Z,1.67
2023-04-15T18:55:15.704Z,1.60
2023-04-15T18:57:47.124Z,1.63
2023-04-15T19:00:18.585Z,1.60
2023-04-15T19:02:49.755Z,1.60
2023-04-15T19:05:20.319Z,1.75
2023-04-15T19:07:51.952Z,1.83
2023-04-15T19:10:21.972Z,1.85
2023-04-15T19:12:51.686Z,1.75
2023-04-15T19:15:21.547Z,2.10
2023-04-15T19:17:53.067Z,1.70
2023-04-15T19:20:23.347Z,1.90
2023-04-15T19:22:53.612Z,1.65
2023-04-15T19:25:23.539Z,1.80
2023-04-15T19:27:53.437Z,1.70
2023-04-15T19:30:23.720Z,1.80
2023-04-15T19:32:55.400Z,1.75
2023-04-15T19:35:25.872Z,1.95
2023-04-15T19:37:56.392Z,1.80
2023-04-15T19:40:25.993Z,1.60
2023-04-15T19:42:56.285Z,1.60
2023-04-15T19:45:26.446Z,1.70
2023-04-15T19:47:58.785Z,1.70
2023-04-15T19:50:29.046Z,1.65
2023-04-15T19:52:59.212Z,1.70
2023-04-15T19:55:29.383Z,1.77
2023-04-15T19:57:59.053Z,1.83
2023-04-15T20:00:28.709Z,1.80
2023-04-15T20:03:01.235Z,1.60
2023-04-15T20:05:31.371Z,1.75
2023-04-15T20:08:02.810Z,1.70
2023-04-15T20:10:33.088Z,1.80
2023-04-15T20:13:03.148Z,1.80
2023-04-15T20:15:33.552Z,1.70
2023-04-15T20:18:05.093Z,1.90
2023-04-15T20:20:37.313Z,1.60
2023-04-15T20:23:07.400Z,1.70
2023-04-15T20:25:37.734Z,1.90
2023-04-15T20:28:07.724Z,1.63
2023-04-15T20:30:39.669Z,1.75
2023-04-15T20:33:11.312Z,1.60
2023-04-15T20:35:41.140Z,1.80
2023-04-15T20:38:11.644Z,1.90
2023-04-15T20:40:41.911Z,1.80
2023-04-15T20:43:11.707Z,1.80
2023-04-15T20:45:42.178Z,1.95
2023-04-15T20:48:15.062Z,1.70
2023-04-15T20:50:44.676Z,1.77
2023-04-15T20:53:14.347Z,1.73
2023-04-15T20:55:44.916Z,1.90
2023-04-15T20:58:15.263Z,2.03
2023-04-15T21:00:45.670Z,2.28
2023-04-15T21:03:18.046Z,2.40
2023-04-15T21:05:48.278Z,2.30
2023-04-15T21:08:18.392Z,2.17
2023-04-15T21:10:48.065Z,2.10
2023-04-15T21:13:18.033Z,2.03
2023-04-15T21:15:52.089Z,2.00
2023-04-15T21:18:24.105Z,1.85
2023-04-15T21:21:00.108Z,2.33
2023-04-15T21:23:31.882Z,2.05
2023-04-15T21:26:02.076Z,2.13
2023-04-15T21:28:32.182Z,2.22
2023-04-15T21:31:02.367Z,2.40
2023-04-15T21:33:34.459Z,2.42
2023-04-15T21:36:04.646Z,2.33
2023-04-15T21:38:35.444Z,2.47
2023-04-15T21:41:09.913Z,2.35
2023-04-15T21:43:39.624Z,2.50
2023-04-15T21:46:22.591Z,2.70
2023-04-15T21:48:55.931Z,2.60
2023-04-15T21:51:26.167Z,2.58
2023-04-15T21:53:56.374Z,2.60
2023-04-15T21:56:26.487Z,2.35
2023-04-15T21:58:59.407Z,2.72
2023-04-15T22:01:29.791Z,2.70
2023-04-15T22:04:02.206Z,2.33
2023-04-15T22:06:32.750Z,2.30
2023-04-15T22:09:02.949Z,2.53
2023-04-15T22:11:33.056Z,2.75
2023-04-15T22:14:03.669Z,2.58
2023-04-15T22:16:33.734Z,2.63
2023-04-15T22:19:06.011Z,2.72
2023-04-15T22:21:36.197Z,2.42
2023-04-15T22:24:32.107Z,2.60
2023-04-15T22:26:57.093Z,2.45
2023-04-15T22:29:27.323Z,2.58
2023-04-15T22:31:56.954Z,2.50
2023-04-15T22:34:29.038Z,2.78
2023-04-15T22:36:59.197Z,2.70
2023-04-15T22:39:29.453Z,2.45
2023-04-15T22:41:59.369Z,2.40
2023-04-15T22:44:29.458Z,2.45
2023-04-15T22:46:59.671Z,2.70
2023-04-15T22:49:31.742Z,2.45
2023-04-15T22:52:01.895Z,2.58
2023-04-15T22:54:32.068Z,2.65
2023-04-15T22:57:02.242Z,2.60
2023-04-15T22:59:32.415Z,2.85
2023-04-15T23:02:02.659Z,2.67
2023-04-15T23:04:35.436Z,2.60
2023-04-15T23:07:05.533Z,2.40
2023-04-15T23:09:35.879Z,2.53
2023-04-15T23:12:06.574Z,2.65
2023-04-15T23:14:36.784Z,2.35
2023-04-15T23:17:06.905Z,2.67
2023-04-15T23:19:38.958Z,2.45
2023-04-15T23:22:10.950Z,2.25
2023-04-15T23:24:41.173Z,2.45
2023-04-15T23:27:10.870Z,2.35
2023-04-15T23:29:41.266Z,2.38
2023-04-15T23:32:11.448Z,2.60
2023-04-15T23:34:42.500Z,2.47
2023-04-15T23:37:12.654Z,2.40
2023-04-15T23:39:42.239Z,2.47
2023-04-15T23:42:12.806Z,2.70
2023-04-15T23:44:42.783Z,2.67
2023-04-15T23:47:12.861Z,2.47
2023-04-15T23:49:44.507Z,2.90
2023-04-15T23:52:14.913Z,2.63
2023-04-15T23:54:45.049Z,2.58
2023-04-15T23:57:15.440Z,2.83
2023-04-15T23:59:45.763Z,2.50
